createdAt,value
2017-11-06T00:01:34.619Z,32.20
2017-11-06T00:04:02.171Z,30.23
2017-11-06T00:06:29.502Z,29.20
2017-11-06T00:08:56.816Z,24.57
2017-11-06T00:11:24.137Z,40.50
2017-11-06T00:13:51.445Z,29.97
2017-11-06T00:16:18.773Z,30.80
2017-11-06T00:18:46.081Z,27.30
2017-11-06T00:21:13.409Z,22.80
2017-11-06T00:23:40.745Z,32.27
2017-11-06T00:26:08.107Z,27.00
2017-11-06T00:28:35.417Z,26.50
2017-11-06T00:31:02.742Z,25.50
2017-11-06T00:33:30.054Z,23.33
2017-11-06T00:35:57.381Z,24.10
2017-11-06T00:38:24.714Z,27.20
2017-11-06T00:40:52.018Z,23.70
2017-11-06T00:43:19.389Z,30.60
2017-11-06T00:45:47.682Z,23.20
2017-11-06T00:48:15.041Z,22.33
2017-11-06T00:50:42.391Z,27.47
2017-11-06T00:53:09.702Z,24.83
2017-11-06T00:55:37.029Z,24.23
2017-11-06T00:58:04.417Z,27.97
2017-11-06T01:00:31.750Z,25.03
2017-11-06T01:02:59.085Z,31.47
2017-11-06T01:05:26.410Z,27.73
2017-11-06T01:07:53.765Z,28.10
2017-11-06T01:10:21.082Z,26.73
2017-11-06T01:12:48.413Z,27.63
2017-11-06T01:15:15.761Z,24.73
2017-11-06T01:17:43.090Z,28.80
2017-11-06T01:20:10.451Z,28.37
2017-11-06T01:22:38.090Z,31.20
2017-11-06T01:25:05.421Z,28.47
2017-11-06T01:27:32.725Z,32.60
2017-11-06T01:30:00.102Z,27.43
2017-11-06T01:32:27.414Z,27.70
2017-11-06T01:34:54.748Z,32.00
2017-11-06T01:37:22.475Z,30.57
2017-11-06T01:39:49.793Z,30.17
2017-11-06T01:42:17.098Z,27.47
2017-11-06T01:44:44.441Z,29.07
2017-11-06T01:47:12.733Z,30.53
2017-11-06T01:49:40.098Z,22.63
2017-11-06T01:52:07.420Z,23.00
2017-11-06T01:54:34.735Z,28.40
2017-11-06T01:57:02.057Z,23.97
2017-11-06T01:59:29.370Z,19.10
2017-11-06T02:01:56.697Z,25.67
2017-11-06T02:04:24.011Z,29.20
2017-11-06T02:06:51.347Z,30.13
2017-11-06T02:09:18.645Z,33.37
2017-11-06T02:11:45.969Z,26.80
2017-11-06T02:14:13.282Z,24.87
2017-11-06T02:16:40.606Z,25.90
2017-11-06T02:19:07.928Z,25.90
2017-11-06T02:21:35.245Z,28.30
2017-11-06T02:24:02.574Z,22.80
2017-11-06T02:26:30.744Z,23.27
2017-11-06T02:28:58.066Z,21.20
2017-11-06T02:31:25.369Z,23.73
2017-11-06T02:33:53.593Z,23.30
2017-11-06T02:36:20.923Z,21.63
2017-11-06T02:38:48.242Z,23.10
2017-11-06T02:41:15.566Z,19.27
2017-11-06T02:43:43.669Z,22.20
2017-11-06T02:46:10.987Z,19.07
2017-11-06T02:48:39.249Z,18.67
2017-11-06T02:51:06.573Z,25.30
2017-11-06T02:53:34.909Z,18.97
2017-11-06T02:56:03.173Z,17.87
2017-11-06T02:58:30.498Z,20.70
2017-11-06T03:00:57.795Z,20.97
2017-11-06T03:03:25.206Z,21.37
2017-11-06T03:05:52.501Z,18.53
2017-11-06T03:08:19.802Z,18.93
2017-11-06T03:10:47.128Z,18.03
2017-11-06T03:13:14.446Z,19.67
2017-11-06T03:15:41.774Z,22.20
2017-11-06T03:18:09.078Z,18.90
2017-11-06T03:20:36.388Z,20.43
2017-11-06T03:23:03.702Z,18.60
2017-11-06T03:25:31.020Z,15.47
2017-11-06T03:27:58.339Z,20.03
2017-11-06T03:30:25.658Z,19.67
2017-11-06T03:32:52.975Z,18.63
2017-11-06T03:35:20.668Z,17.57
2017-11-06T03:37:48.026Z,18.43
2017-11-06T03:40:15.354Z,21.37
2017-11-06T03:42:42.673Z,17.95
2017-11-06T03:45:09.994Z,13.87
2017-11-06T03:47:37.333Z,18.03
2017-11-06T03:50:04.917Z,22.50
2017-11-06T03:52:32.258Z,19.10
2017-11-06T03:54:59.552Z,19.87
2017-11-06T03:57:26.906Z,22.07
2017-11-06T03:59:54.217Z,18.10
2017-11-06T04:02:21.554Z,18.73
2017-11-06T04:04:48.895Z,24.07
2017-11-06T04:07:16.217Z,24.97
2017-11-06T04:09:43.522Z,19.63
2017-11-06T04:12:10.862Z,18.67
2017-11-06T04:14:38.165Z,18.13
2017-11-06T04:17:05.495Z,17.10
2017-11-06T04:19:32.801Z,18.93
2017-11-06T04:22:00.130Z,21.77
2017-11-06T04:24:27.445Z,21.00
2017-11-06T04:26:54.749Z,19.90
2017-11-06T04:29:22.085Z,17.17
2017-11-06T04:31:49.396Z,17.73
2017-11-06T04:34:22.649Z,17.17
2017-11-06T04:36:49.953Z,13.00
2017-11-06T04:39:17.292Z,17.47
2017-11-06T04:41:44.597Z,21.80
2017-11-06T04:44:11.953Z,17.43
2017-11-06T04:46:39.417Z,14.63
2017-11-06T04:49:06.769Z,21.00
2017-11-06T04:51:34.089Z,13.67
2017-11-06T04:54:01.412Z,18.83
2017-11-06T04:56:28.728Z,21.50
2017-11-06T04:58:56.061Z,17.10
2017-11-06T05:01:23.394Z,16.57
2017-11-06T05:03:50.729Z,15.57
2017-11-06T05:06:18.038Z,15.73
2017-11-06T05:08:45.357Z,16.70
2017-11-06T05:11:12.664Z,17.40
2017-11-06T05:13:39.981Z,17.40
2017-11-06T05:16:07.314Z,19.40
2017-11-06T05:18:34.739Z,28.63
2017-11-06T05:21:02.046Z,16.63
2017-11-06T05:23:29.345Z,21.50
2017-11-06T05:25:56.666Z,15.17
2017-11-06T05:28:23.986Z,13.93
2017-11-06T05:30:51.345Z,15.27
2017-11-06T05:33:18.653Z,17.50
2017-11-06T05:35:45.970Z,16.60
2017-11-06T05:38:13.274Z,20.90
2017-11-06T05:40:40.614Z,14.13
2017-11-06T05:43:07.912Z,16.20
2017-11-06T05:45:35.237Z,16.13
2017-11-06T05:48:02.537Z,18.67
2017-11-06T05:50:29.865Z,23.37
2017-11-06T05:52:58.107Z,21.17
2017-11-06T05:55:25.468Z,19.97
2017-11-06T05:57:52.810Z,23.87
2017-11-06T06:00:20.129Z,18.50
2017-11-06T06:02:47.441Z,17.97
2017-11-06T06:05:14.772Z,16.90
2017-11-06T06:07:42.074Z,23.00
2017-11-06T06:10:09.373Z,19.30
2017-11-06T06:12:36.714Z,18.97
2017-11-06T06:15:04.027Z,20.13
2017-11-06T06:17:31.357Z,17.37
2017-11-06T06:19:58.667Z,20.30
2017-11-06T06:22:25.994Z,19.93
2017-11-06T06:24:53.311Z,24.43
2017-11-06T06:27:21.304Z,22.50
2017-11-06T06:29:48.763Z,24.10
2017-11-06T06:32:16.096Z,24.53
2017-11-06T06:34:43.413Z,25.90
2017-11-06T06:37:10.738Z,27.77
2017-11-06T06:39:40.081Z,19.83
2017-11-06T06:42:07.567Z,18.53
2017-11-06T06:44:35.132Z,19.93
2017-11-06T06:47:02.477Z,22.30
2017-11-06T06:49:29.855Z,28.07
2017-11-06T06:51:57.213Z,24.80
2017-11-06T06:54:24.564Z,23.37
2017-11-06T06:56:51.857Z,25.03
2017-11-06T06:59:19.210Z,25.67
2017-11-06T07:01:46.567Z,28.17
2017-11-06T07:04:13.893Z,24.10
2017-11-06T07:06:43.175Z,24.73
2017-11-06T07:09:10.516Z,23.20
2017-11-06T07:11:37.829Z,28.73
2017-11-06T07:14:05.160Z,26.33
2017-11-06T07:16:32.470Z,20.73
2017-11-06T07:18:59.837Z,21.93
2017-11-06T07:21:27.169Z,21.97
2017-11-06T07:23:54.493Z,23.87
2017-11-06T07:26:21.834Z,21.43
2017-11-06T07:28:49.192Z,19.93
2017-11-06T07:31:16.552Z,20.67
2017-11-06T07:33:43.854Z,27.33
2017-11-06T07:36:11.188Z,25.90
2017-11-06T07:38:38.533Z,21.53
2017-11-06T07:41:05.861Z,24.50
2017-11-06T07:43:33.169Z,20.70
2017-11-06T07:46:00.522Z,25.20
2017-11-06T07:48:27.830Z,24.83
2017-11-06T07:50:55.157Z,20.93
2017-11-06T07:53:22.468Z,24.40
2017-11-06T07:55:49.829Z,22.40
2017-11-06T07:58:17.141Z,25.90
2017-11-06T08:00:44.486Z,22.07
2017-11-06T08:03:11.819Z,22.93
2017-11-06T08:05:39.181Z,19.77
2017-11-06T08:08:06.509Z,19.50
2017-11-06T08:10:33.838Z,21.27
2017-11-06T08:13:01.169Z,20.97
2017-11-06T08:15:28.508Z,20.60
2017-11-06T08:17:55.840Z,24.03
2017-11-06T08:20:23.165Z,27.40
2017-11-06T08:22:50.974Z,18.43
2017-11-06T08:25:18.301Z,24.10
2017-11-06T08:27:45.629Z,24.80
2017-11-06T08:30:12.942Z,25.40
2017-11-06T08:32:40.264Z,24.10
2017-11-06T08:35:07.809Z,22.77
2017-11-06T08:37:35.149Z,24.73
2017-11-06T08:40:02.473Z,24.27
2017-11-06T08:42:29.765Z,22.90
2017-11-06T08:44:57.136Z,26.00
2017-11-06T08:47:24.465Z,25.97
2017-11-06T08:49:51.797Z,26.93
2017-11-06T08:52:19.108Z,21.40
2017-11-06T08:54:46.437Z,22.53
2017-11-06T08:57:14.047Z,26.47
2017-11-06T08:59:41.382Z,24.93
2017-11-06T09:02:08.697Z,23.70
2017-11-06T09:04:36.022Z,21.37
2017-11-06T09:07:03.326Z,23.27
2017-11-06T09:09:30.653Z,25.10
2017-11-06T09:11:57.969Z,24.10
2017-11-06T09:14:25.294Z,23.77
2017-11-06T09:16:52.605Z,21.80
2017-11-06T09:19:19.921Z,22.50
2017-11-06T09:21:48.505Z,22.40
2017-11-06T09:24:15.829Z,22.33
2017-11-06T09:26:43.148Z,22.50
2017-11-06T09:29:10.473Z,22.83
2017-11-06T09:31:37.794Z,22.83
2017-11-06T09:34:05.109Z,22.57
2017-11-06T09:36:32.420Z,20.27
2017-11-06T09:38:59.756Z,26.13
2017-11-06T09:41:27.229Z,21.53
2017-11-06T09:43:54.531Z,23.97
2017-11-06T09:46:21.866Z,21.60
2017-11-06T09:48:49.213Z,21.60
2017-11-06T09:51:16.533Z,27.83
2017-11-06T09:53:43.876Z,23.73
2017-11-06T09:56:11.205Z,21.77
2017-11-06T09:58:38.553Z,20.03
2017-11-06T10:01:05.901Z,25.83
2017-11-06T10:03:33.228Z,25.80
2017-11-06T10:06:00.548Z,24.20
2017-11-06T10:08:27.904Z,21.30
2017-11-06T10:10:55.258Z,22.97
2017-11-06T10:13:22.568Z,25.60
2017-11-06T10:15:49.881Z,19.83
2017-11-06T10:18:17.209Z,18.57
2017-11-06T10:20:44.512Z,20.83
2017-11-06T10:23:11.844Z,19.47
2017-11-06T10:25:39.145Z,20.37
2017-11-06T10:28:06.465Z,23.30
2017-11-06T10:30:33.830Z,18.57
2017-11-06T10:33:01.144Z,24.60
2017-11-06T10:35:28.448Z,26.30
2017-11-06T10:37:55.824Z,21.10
2017-11-06T10:40:23.165Z,17.40
2017-11-06T10:42:50.489Z,18.53
2017-11-06T10:45:17.841Z,27.83
2017-11-06T10:47:45.182Z,21.03
2017-11-06T10:50:12.509Z,23.60
2017-11-06T10:52:40.755Z,19.90
2017-11-06T10:55:08.233Z,20.30
2017-11-06T10:57:35.791Z,20.83
2017-11-06T11:00:03.118Z,20.23
2017-11-06T11:02:30.425Z,20.90
2017-11-06T11:04:57.766Z,26.03
2017-11-06T11:07:25.080Z,22.10
2017-11-06T11:09:52.429Z,26.83
2017-11-06T11:12:19.741Z,22.33
2017-11-06T11:14:47.069Z,21.87
2017-11-06T11:17:14.421Z,23.87
2017-11-06T11:19:41.737Z,23.20
2017-11-06T11:22:09.071Z,22.53
2017-11-06T11:24:36.364Z,22.70
2017-11-06T11:27:03.713Z,22.87
2017-11-06T11:29:31.026Z,27.03
2017-11-06T11:31:58.357Z,23.07
2017-11-06T11:34:25.712Z,19.50
2017-11-06T11:36:54.295Z,19.67
2017-11-06T11:39:21.907Z,17.03
2017-11-06T11:41:49.262Z,18.60
2017-11-06T11:44:16.581Z,20.17
2017-11-06T11:46:43.897Z,15.23
2017-11-06T11:49:12.185Z,21.10
2017-11-06T11:51:39.499Z,13.63
2017-11-06T11:54:06.822Z,20.20
2017-11-06T11:56:34.119Z,13.80
2017-11-06T11:59:01.444Z,16.90
2017-11-06T12:01:28.754Z,13.10
2017-11-06T12:03:56.096Z,17.07
2017-11-06T12:06:23.393Z,11.97
2017-11-06T12:08:50.716Z,17.63
2017-11-06T12:11:18.029Z,14.13
2017-11-06T12:13:45.370Z,13.07
2017-11-06T12:16:12.664Z,12.97
2017-11-06T12:18:40.006Z,10.03
2017-11-06T12:21:07.306Z,13.90
2017-11-06T12:23:34.644Z,14.57
2017-11-06T12:26:01.942Z,18.33
2017-11-06T12:28:29.258Z,9.33
2017-11-06T12:30:56.639Z,17.67
2017-11-06T12:33:23.953Z,14.90
2017-11-06T12:35:51.294Z,14.57
2017-11-06T12:38:18.630Z,15.40
2017-11-06T12:40:45.978Z,9.40
2017-11-06T12:43:13.261Z,16.07
2017-11-06T12:45:40.585Z,12.53
2017-11-06T12:48:07.886Z,12.23
2017-11-06T12:50:35.226Z,14.03
2017-11-06T12:53:02.545Z,10.70
2017-11-06T12:55:29.941Z,11.63
2017-11-06T12:57:57.241Z,13.20
2017-11-06T13:00:24.594Z,12.13
2017-11-06T13:02:51.919Z,19.33
2017-11-06T13:05:19.238Z,8.50
2017-11-06T13:07:46.570Z,9.80
2017-11-06T13:10:13.868Z,9.30
2017-11-06T13:12:41.235Z,12.73
2017-11-06T13:15:08.556Z,11.40
2017-11-06T13:17:36.785Z,10.77
2017-11-06T13:20:04.113Z,12.80
2017-11-06T13:22:31.432Z,11.07
2017-11-06T13:24:58.759Z,9.30
2017-11-06T13:27:26.077Z,9.63
2017-11-06T13:29:53.380Z,9.97
2017-11-06T13:32:20.732Z,7.27
2017-11-06T13:34:48.016Z,9.03
2017-11-06T13:37:15.363Z,6.60
2017-11-06T13:39:42.658Z,6.90
2017-11-06T13:42:10.013Z,6.33
2017-11-06T13:44:37.332Z,8.43
2017-11-06T13:47:04.644Z,8.53
2017-11-06T13:49:31.997Z,9.27
2017-11-06T13:51:59.312Z,5.10
2017-11-06T13:54:26.618Z,5.40
2017-11-06T13:56:53.937Z,4.70
2017-11-06T13:59:21.433Z,7.77
2017-11-06T14:01:48.733Z,9.17
2017-11-06T14:04:16.066Z,12.73
2017-11-06T14:06:43.361Z,7.70
2017-11-06T14:09:10.728Z,8.17
2017-11-06T14:11:38.035Z,8.50
2017-11-06T14:14:05.349Z,10.37
2017-11-06T14:16:32.691Z,7.00
2017-11-06T14:18:59.981Z,7.20
2017-11-06T14:21:27.309Z,7.53
2017-11-06T14:23:54.615Z,6.20
2017-11-06T14:26:21.938Z,6.50
2017-11-06T14:28:49.675Z,6.20
2017-11-06T14:31:17.035Z,10.43
2017-11-06T14:33:44.326Z,6.40
2017-11-06T14:36:11.648Z,6.80
2017-11-06T14:38:38.936Z,4.93
2017-11-06T14:41:06.252Z,11.37
2017-11-06T14:43:33.593Z,10.90
2017-11-06T14:46:00.942Z,8.70
2017-11-06T14:48:28.237Z,10.30
2017-11-06T14:50:55.578Z,7.20
2017-11-06T14:53:22.882Z,10.47
2017-11-06T14:55:50.226Z,7.60
2017-11-06T14:58:17.534Z,10.00
2017-11-06T15:00:44.851Z,8.70
2017-11-06T15:03:12.203Z,11.80
2017-11-06T15:05:39.504Z,12.30
2017-11-06T15:08:06.968Z,7.27
2017-11-06T15:10:34.273Z,9.90
2017-11-06T15:13:01.694Z,9.10
2017-11-06T15:15:29.037Z,8.80
2017-11-06T15:17:56.388Z,8.17
2017-11-06T15:20:23.680Z,9.20
2017-11-06T15:22:51.020Z,7.67
2017-11-06T15:25:19.295Z,9.10
2017-11-06T15:27:46.633Z,11.20
2017-11-06T15:30:13.925Z,9.37
2017-11-06T15:32:41.285Z,8.50
2017-11-06T15:35:08.712Z,7.50
2017-11-06T15:37:36.074Z,10.43
2017-11-06T15:40:03.464Z,12.37
2017-11-06T15:42:31.069Z,11.50
2017-11-06T15:44:59.441Z,13.63
2017-11-06T15:47:26.791Z,26.67
2017-11-06T15:49:54.137Z,26.43
2017-11-06T15:52:21.545Z,15.73
2017-11-06T15:54:48.946Z,28.73
2017-11-06T15:57:16.293Z,26.80
2017-11-06T15:59:43.645Z,25.37
2017-11-06T16:02:11.008Z,22.73
2017-11-06T16:04:38.506Z,22.27
2017-11-06T16:07:05.868Z,19.87
2017-11-06T16:09:33.188Z,26.20
2017-11-06T16:12:00.489Z,15.33
2017-11-06T16:14:28.106Z,15.77
2017-11-06T16:16:55.402Z,19.70
2017-11-06T16:19:22.700Z,18.03
2017-11-06T16:21:50.130Z,22.77
2017-11-06T16:24:17.553Z,27.23
2017-11-06T16:26:44.898Z,28.40
2017-11-06T16:29:12.221Z,30.37
2017-11-06T16:31:40.529Z,33.20
2017-11-06T16:34:08.146Z,20.00
2017-11-06T16:36:35.481Z,19.93
2017-11-06T16:39:03.101Z,15.07
2017-11-06T16:41:30.431Z,20.53
2017-11-06T16:43:57.873Z,18.07
2017-11-06T16:46:25.218Z,21.23
2017-11-06T16:48:52.689Z,20.20
2017-11-06T16:51:20.020Z,20.23
2017-11-06T16:53:47.499Z,18.93
2017-11-06T16:56:14.790Z,22.30
2017-11-06T16:58:42.149Z,16.47
2017-11-06T17:01:09.453Z,24.00
2017-11-06T17:03:36.886Z,26.43
2017-11-06T17:06:04.222Z,40.27
2017-11-06T17:08:31.667Z,44.27
2017-11-06T17:10:59.000Z,37.47
2017-11-06T17:13:26.524Z,24.10
2017-11-06T17:15:53.849Z,28.40
2017-11-06T17:18:21.181Z,31.30
2017-11-06T17:20:48.549Z,25.63
2017-11-06T17:23:15.882Z,26.70
2017-11-06T17:25:43.230Z,31.20
2017-11-06T17:28:10.537Z,33.87
2017-11-06T17:30:38.849Z,39.57
2017-11-06T17:33:06.170Z,40.63
2017-11-06T17:35:33.596Z,70.73
2017-11-06T17:38:00.923Z,56.00
2017-11-06T17:40:28.265Z,66.47
2017-11-06T17:42:55.610Z,71.57
2017-11-06T17:45:22.925Z,54.23
2017-11-06T17:47:50.267Z,48.60
2017-11-06T17:50:17.597Z,57.33
2017-11-06T17:52:44.897Z,50.97
2017-11-06T17:55:12.221Z,51.37
2017-11-06T17:57:39.555Z,50.50
2017-11-06T18:00:06.882Z,53.63
2017-11-06T18:02:34.346Z,54.73
2017-11-06T18:05:01.733Z,55.00
2017-11-06T18:07:29.152Z,63.27
2017-11-06T18:09:56.492Z,55.20
2017-11-06T18:12:23.945Z,55.33
2017-11-06T18:14:51.454Z,53.97
2017-11-06T18:17:18.805Z,53.53
2017-11-06T18:19:46.129Z,57.73
2017-11-06T18:22:13.773Z,51.63
2017-11-06T18:24:41.251Z,56.20
2017-11-06T18:27:08.565Z,55.13
2017-11-06T18:29:35.886Z,59.03
2017-11-06T18:32:03.301Z,55.97
2017-11-06T18:34:30.621Z,57.73
2017-11-06T18:36:57.961Z,56.43
2017-11-06T18:39:25.274Z,54.83
2017-11-06T18:41:52.613Z,49.83
2017-11-06T18:44:19.937Z,53.93
2017-11-06T18:46:47.273Z,50.60
2017-11-06T18:49:14.630Z,55.50
2017-11-06T18:51:41.949Z,50.95
2017-11-06T18:54:09.304Z,50.67
2017-11-06T18:56:36.849Z,48.50
2017-11-06T18:59:04.248Z,50.77
2017-11-06T19:01:31.561Z,54.33
2017-11-06T19:03:58.892Z,56.40
2017-11-06T19:06:26.217Z,58.50
2017-11-06T19:08:53.557Z,108.17
2017-11-06T19:11:21.814Z,102.87
2017-11-06T19:13:49.172Z,75.97
2017-11-06T19:16:16.802Z,58.80
2017-11-06T19:18:44.115Z,65.10
2017-11-06T19:21:11.460Z,63.80
2017-11-06T19:23:38.814Z,61.03
2017-11-06T19:26:06.138Z,76.27
2017-11-06T19:28:34.388Z,62.77
2017-11-06T19:31:01.774Z,65.50
2017-11-06T19:33:29.168Z,63.43
2017-11-06T19:35:56.644Z,57.80
2017-11-06T19:38:24.029Z,62.13
2017-11-06T19:40:51.361Z,57.23
2017-11-06T19:43:18.685Z,61.27
2017-11-06T19:45:47.092Z,63.23
2017-11-06T19:48:14.831Z,57.17
2017-11-06T19:50:42.662Z,59.73
2017-11-06T19:53:10.216Z,54.63
2017-11-06T19:55:37.525Z,56.17
2017-11-06T19:58:04.866Z,59.20
2017-11-06T20:00:32.183Z,58.30
2017-11-06T20:02:59.521Z,62.23
2017-11-06T20:05:26.881Z,63.90
2017-11-06T20:07:54.289Z,66.90
2017-11-06T20:10:21.630Z,67.67
2017-11-06T20:12:48.973Z,64.80
2017-11-06T20:15:16.479Z,69.43
2017-11-06T20:17:43.829Z,64.50
2017-11-06T20:20:11.151Z,66.00
2017-11-06T20:22:38.474Z,60.07
2017-11-06T20:25:05.858Z,70.07
2017-11-06T20:27:33.236Z,64.47
2017-11-06T20:30:00.576Z,61.57
2017-11-06T20:32:27.885Z,65.43
2017-11-06T20:34:55.215Z,62.60
2017-11-06T20:37:22.513Z,66.53
2017-11-06T20:39:49.833Z,53.40
2017-11-06T20:42:17.141Z,61.50
2017-11-06T20:44:44.500Z,55.80
2017-11-06T20:47:11.832Z,61.47
2017-11-06T20:49:39.156Z,59.70
2017-11-06T20:52:06.469Z,65.97
2017-11-06T20:54:33.794Z,58.90
2017-11-06T20:57:01.173Z,57.70
2017-11-06T20:59:28.517Z,61.40
2017-11-06T21:01:55.842Z,60.47
2017-11-06T21:04:23.250Z,55.73
2017-11-06T21:06:50.585Z,60.00
2017-11-06T21:09:17.913Z,60.50
2017-11-06T21:11:45.525Z,63.80
2017-11-06T21:14:12.867Z,66.00
2017-11-06T21:16:40.186Z,59.13
2017-11-06T21:19:07.492Z,58.07
2017-11-06T21:21:34.816Z,56.57
2017-11-06T21:24:02.133Z,60.50
2017-11-06T21:26:29.472Z,62.40
2017-11-06T21:28:56.813Z,59.67
2017-11-06T21:31:24.134Z,62.50
2017-11-06T21:33:51.443Z,56.27
2017-11-06T21:36:18.773Z,55.73
2017-11-06T21:38:46.084Z,50.13
2017-11-06T21:41:13.416Z,52.93
2017-11-06T21:43:40.765Z,64.73
2017-11-06T21:46:08.116Z,58.63
2017-11-06T21:48:35.461Z,63.47
2017-11-06T21:51:02.790Z,63.10
2017-11-06T21:53:30.405Z,62.93
2017-11-06T21:55:57.715Z,62.55
2017-11-06T21:58:25.045Z,71.30
2017-11-06T22:00:53.256Z,73.50
2017-11-06T22:03:20.620Z,73.70
2017-11-06T22:05:47.970Z,75.37
2017-11-06T22:08:15.349Z,65.47
2017-11-06T22:10:42.647Z,68.30
2017-11-06T22:13:10.941Z,63.40
2017-11-06T22:15:38.257Z,68.33
2017-11-06T22:18:05.588Z,65.10
2017-11-06T22:20:32.906Z,74.77
2017-11-06T22:23:00.228Z,65.87
2017-11-06T22:25:27.549Z,61.37
2017-11-06T22:27:54.905Z,60.03
2017-11-06T22:30:22.221Z,56.43
2017-11-06T22:32:49.541Z,68.10
2017-11-06T22:35:16.877Z,66.40
2017-11-06T22:37:44.190Z,62.85
2017-11-06T22:40:11.525Z,57.77
2017-11-06T22:42:38.841Z,60.73
2017-11-06T22:45:06.220Z,54.37
2017-11-06T22:47:33.577Z,57.60
2017-11-06T22:50:00.953Z,54.60
2017-11-06T22:52:28.293Z,57.70
2017-11-06T22:54:55.689Z,58.03
2017-11-06T22:57:23.078Z,58.57
2017-11-06T22:59:50.425Z,71.90
2017-11-06T23:02:17.769Z,62.27
2017-11-06T23:04:45.102Z,57.13
2017-11-06T23:07:12.410Z,51.43
2017-11-06T23:09:39.719Z,60.60
2017-11-06T23:12:07.065Z,57.33
2017-11-06T23:14:34.381Z,56.07
2017-11-06T23:17:01.713Z,59.00
2017-11-06T23:19:29.503Z,56.90
2017-11-06T23:21:56.871Z,56.37
2017-11-06T23:24:24.188Z,50.15
2017-11-06T23:26:52.435Z,57.13
2017-11-06T23:29:19.744Z,54.93
2017-11-06T23:31:47.097Z,47.03
2017-11-06T23:34:14.414Z,58.73
2017-11-06T23:36:41.780Z,51.47
2017-11-06T23:39:10.096Z,55.07
2017-11-06T23:41:37.438Z,55.77
2017-11-06T23:44:04.758Z,52.33
2017-11-06T23:46:32.072Z,49.27
2017-11-06T23:49:00.409Z,50.10
2017-11-06T23:51:27.821Z,52.77
2017-11-06T23:53:55.152Z,57.20
2017-11-06T23:56:22.485Z,75.97
2017-11-06T23:58:49.849Z,121.30
